createdAt,value
2022-07-29T00:02:27.311Z,12.20
2022-07-29T00:04:54.293Z,12.18
2022-07-29T00:07:21.311Z,12.38
2022-07-29T00:09:51.599Z,12.85
2022-07-29T00:12:26.193Z,12.23
2022-07-29T00:14:55.799Z,12.07
2022-07-29T00:17:23.626Z,12.40
2022-07-29T00:19:50.488Z,12.50
2022-07-29T00:22:17.282Z,12.18
2022-07-29T00:24:44.006Z,12.38
2022-07-29T00:27:10.699Z,12.20
2022-07-29T00:29:37.412Z,12.38
2022-07-29T00:32:04.314Z,12.98
2022-07-29T00:34:50.570Z,12.85
2022-07-29T00:37:17.375Z,13.10
2022-07-29T00:39:45.267Z,12.82
2022-07-29T00:42:12.174Z,12.88
2022-07-29T00:44:42.364Z,13.00
2022-07-29T00:47:10.912Z,13.10
2022-07-29T00:49:39.531Z,12.50
2022-07-29T00:52:07.537Z,12.57
2022-07-29T00:54:35.128Z,12.40
2022-07-29T00:57:04.369Z,12.70
2022-07-29T00:59:34.433Z,12.88
2022-07-29T01:02:01.845Z,12.40
2022-07-29T01:04:28.809Z,12.73
2022-07-29T01:06:55.886Z,13.07
2022-07-29T01:09:40.864Z,12.57
2022-07-29T01:12:11.631Z,13.23
2022-07-29T01:14:39.300Z,13.57
2022-07-29T01:17:13.708Z,13.00
2022-07-29T01:19:53.994Z,13.05
2022-07-29T01:22:29.877Z,13.18
2022-07-29T01:25:13.810Z,13.20
2022-07-29T01:27:53.587Z,13.35
2022-07-29T01:30:25.400Z,12.88
2022-07-29T01:32:57.447Z,13.18
2022-07-29T01:35:34.528Z,13.05
2022-07-29T01:38:03.928Z,13.07
2022-07-29T01:40:41.019Z,13.13
2022-07-29T01:43:12.412Z,13.45
2022-07-29T01:45:46.326Z,13.30
2022-07-29T01:48:32.771Z,13.65
2022-07-29T01:51:21.620Z,13.02
2022-07-29T01:54:13.821Z,13.50
2022-07-29T01:56:44.878Z,13.50
2022-07-29T02:01:41.918Z,13.10
2022-07-29T02:04:12.137Z,13.07
2022-07-29T02:07:00.098Z,13.10
2022-07-29T02:09:30.252Z,13.20
2022-07-29T02:11:58.617Z,13.38
2022-07-29T02:14:27.054Z,13.27
2022-07-29T02:16:57.057Z,13.00
2022-07-29T02:19:28.113Z,13.57
2022-07-29T02:21:57.350Z,13.70
2022-07-29T02:24:26.095Z,13.95
2022-07-29T02:26:56.084Z,13.00
2022-07-29T02:29:24.749Z,13.20
2022-07-29T02:31:53.785Z,13.27
2022-07-29T02:34:21.889Z,13.70
2022-07-29T02:36:50.519Z,13.60
2022-07-29T02:39:18.481Z,13.48
2022-07-29T02:41:56.199Z,13.40
2022-07-29T02:44:28.064Z,13.50
2022-07-29T02:47:17.589Z,13.30
2022-07-29T02:50:02.541Z,13.27
2022-07-29T02:52:29.329Z,13.20
2022-07-29T02:55:01.000Z,13.65
2022-07-29T02:57:35.923Z,13.43
2022-07-29T03:00:24.723Z,13.50
2022-07-29T03:02:54.788Z,12.20
2022-07-29T03:05:22.875Z,13.77
2022-07-29T03:07:55.716Z,14.52
2022-07-29T03:10:23.700Z,14.40
2022-07-29T03:12:51.261Z,14.55
2022-07-29T03:15:19.157Z,14.20
2022-07-29T03:17:47.487Z,14.02
2022-07-29T03:20:14.797Z,13.93
2022-07-29T03:22:49.661Z,14.45
2022-07-29T03:25:18.296Z,14.75
2022-07-29T03:27:46.147Z,14.57
2022-07-29T03:30:21.587Z,15.00
2022-07-29T03:32:49.853Z,14.80
2022-07-29T03:35:20.317Z,14.70
2022-07-29T03:37:47.510Z,14.82
2022-07-29T03:40:19.321Z,14.82
2022-07-29T03:42:47.952Z,14.13
2022-07-29T03:45:18.966Z,15.23
2022-07-29T03:47:57.095Z,14.75
2022-07-29T03:50:27.259Z,13.30
2022-07-29T03:52:54.048Z,13.75
2022-07-29T03:55:21.130Z,14.13
2022-07-29T03:57:49.111Z,14.13
2022-07-29T04:00:17.044Z,12.82
2022-07-29T04:02:49.965Z,13.90
2022-07-29T04:05:18.286Z,14.55
2022-07-29T04:07:46.280Z,14.25
2022-07-29T04:10:13.403Z,14.27
2022-07-29T04:12:40.066Z,14.13
2022-07-29T04:15:07.428Z,14.13
2022-07-29T04:17:34.362Z,13.75
2022-07-29T04:20:01.028Z,13.75
2022-07-29T04:22:27.730Z,13.45
2022-07-29T04:24:54.485Z,13.65
2022-07-29T04:27:21.344Z,14.20
2022-07-29T04:29:56.537Z,13.93
2022-07-29T04:32:24.876Z,13.82
2022-07-29T04:34:51.757Z,13.75
2022-07-29T04:37:18.540Z,13.43
2022-07-29T04:39:45.279Z,13.25
2022-07-29T04:42:12.075Z,13.65
2022-07-29T04:44:43.059Z,13.80
2022-07-29T04:47:10.250Z,13.30
2022-07-29T04:49:39.933Z,14.05
2022-07-29T04:52:08.024Z,13.73
2022-07-29T04:54:34.857Z,13.50
2022-07-29T04:57:01.673Z,14.20
2022-07-29T04:59:28.379Z,14.45
2022-07-29T05:01:55.203Z,13.48
2022-07-29T05:04:21.981Z,13.50
2022-07-29T05:06:49.334Z,13.60
2022-07-29T05:09:16.127Z,13.63
2022-07-29T05:11:42.959Z,13.90
2022-07-29T05:14:09.748Z,14.40
2022-07-29T05:16:36.538Z,13.63
2022-07-29T05:19:03.269Z,14.43
2022-07-29T05:21:30.018Z,14.00
2022-07-29T05:23:56.835Z,14.23
2022-07-29T05:26:23.570Z,13.93
2022-07-29T05:28:50.349Z,14.13
2022-07-29T05:31:17.583Z,14.00
2022-07-29T05:33:44.534Z,14.32
2022-07-29T05:36:11.341Z,14.70
2022-07-29T05:38:38.579Z,14.68
2022-07-29T05:41:06.271Z,14.85
2022-07-29T05:43:33.379Z,14.68
2022-07-29T05:46:00.702Z,13.63
2022-07-29T05:48:28.177Z,14.00
2022-07-29T05:50:55.691Z,14.05
2022-07-29T05:53:25.745Z,14.50
2022-07-29T05:55:54.130Z,13.20
2022-07-29T05:58:28.098Z,14.40
2022-07-29T06:01:00.314Z,13.80
2022-07-29T06:03:27.772Z,13.80
2022-07-29T06:05:55.049Z,14.25
2022-07-29T06:08:21.937Z,14.35
2022-07-29T06:10:48.825Z,14.43
2022-07-29T06:13:17.079Z,14.40
2022-07-29T06:15:44.387Z,15.32
2022-07-29T06:18:11.787Z,14.48
2022-07-29T06:20:38.608Z,14.27
2022-07-29T06:23:05.628Z,14.77
2022-07-29T06:25:35.789Z,17.17
2022-07-29T06:28:02.495Z,14.85
2022-07-29T06:30:29.888Z,15.05
2022-07-29T06:32:56.822Z,15.25
2022-07-29T06:35:41.923Z,15.40
2022-07-29T06:38:31.516Z,14.85
2022-07-29T06:41:03.855Z,13.93
2022-07-29T06:43:35.178Z,13.80
2022-07-29T06:46:04.663Z,14.30
2022-07-29T06:48:31.861Z,14.35
2022-07-29T06:50:59.247Z,14.20
2022-07-29T06:53:26.422Z,14.35
2022-07-29T06:55:53.410Z,14.10
2022-07-29T06:58:21.658Z,14.45
2022-07-29T07:01:03.072Z,14.80
2022-07-29T07:03:30.213Z,14.05
2022-07-29T07:05:58.277Z,14.10
2022-07-29T07:08:27.216Z,14.00
2022-07-29T07:10:54.346Z,14.40
2022-07-29T07:13:21.310Z,14.60
2022-07-29T07:15:49.480Z,14.45
2022-07-29T07:18:16.881Z,14.43
2022-07-29T07:20:44.218Z,14.70
2022-07-29T07:23:11.693Z,14.60
2022-07-29T07:25:38.434Z,14.45
2022-07-29T07:28:05.760Z,14.73
2022-07-29T07:30:32.669Z,14.13
2022-07-29T07:32:59.392Z,13.35
2022-07-29T07:35:27.608Z,14.07
2022-07-29T07:37:55.535Z,14.75
2022-07-29T07:40:22.592Z,13.95
2022-07-29T07:42:49.812Z,14.88
2022-07-29T07:45:16.920Z,14.50
2022-07-29T07:47:43.736Z,14.30
2022-07-29T07:50:17.995Z,14.57
2022-07-29T07:52:54.078Z,14.20
2022-07-29T07:55:21.025Z,14.52
2022-07-29T07:57:48.271Z,14.23
2022-07-29T08:00:16.771Z,14.43
2022-07-29T08:02:44.372Z,15.52
2022-07-29T08:05:12.548Z,15.18
2022-07-29T08:07:39.882Z,14.45
2022-07-29T08:10:07.105Z,14.13
2022-07-29T08:12:33.854Z,13.13
2022-07-29T08:15:00.818Z,18.23
2022-07-29T08:17:27.831Z,12.93
2022-07-29T08:19:54.636Z,13.32
2022-07-29T08:22:21.487Z,15.15
2022-07-29T08:24:54.088Z,15.30
2022-07-29T08:27:42.507Z,13.80
2022-07-29T08:30:11.352Z,14.70
2022-07-29T08:32:55.121Z,14.77
2022-07-29T08:35:24.568Z,13.88
2022-07-29T08:37:52.216Z,13.80
2022-07-29T08:40:21.492Z,14.07
2022-07-29T08:42:58.832Z,13.70
2022-07-29T08:45:26.319Z,13.23
2022-07-29T08:47:53.621Z,12.90
2022-07-29T08:50:20.506Z,13.23
2022-07-29T08:52:50.050Z,12.65
2022-07-29T08:55:21.523Z,13.52
2022-07-29T08:57:54.150Z,14.13
2022-07-29T09:00:23.738Z,13.07
2022-07-29T09:02:55.241Z,13.57
2022-07-29T09:05:22.939Z,13.80
2022-07-29T09:07:51.138Z,12.90
2022-07-29T09:10:17.956Z,11.55
2022-07-29T09:12:44.859Z,12.63
2022-07-29T09:15:11.738Z,11.73
2022-07-29T09:17:43.421Z,13.02
2022-07-29T09:20:13.002Z,13.23
2022-07-29T09:22:42.037Z,13.02
2022-07-29T09:25:10.103Z,12.70
2022-07-29T09:27:37.066Z,13.27
2022-07-29T09:30:11.601Z,13.57
2022-07-29T09:32:59.302Z,13.05
2022-07-29T09:35:27.290Z,12.30
2022-07-29T09:37:55.033Z,12.15
2022-07-29T09:40:24.969Z,12.40
2022-07-29T09:45:35.247Z,12.93
2022-07-29T09:48:22.086Z,13.23
2022-07-29T09:50:52.071Z,12.98
2022-07-29T09:55:58.723Z,12.10
2022-07-29T09:58:25.605Z,13.07
2022-07-29T10:00:53.865Z,13.10
2022-07-29T10:03:20.707Z,13.88
2022-07-29T10:06:04.439Z,13.65
2022-07-29T10:08:32.453Z,13.38
2022-07-29T10:11:26.447Z,14.63
2022-07-29T10:14:13.291Z,13.30
2022-07-29T10:16:40.177Z,13.50
2022-07-29T10:19:06.973Z,13.60
2022-07-29T10:21:36.739Z,13.00
2022-07-29T10:24:06.336Z,13.60
2022-07-29T10:26:33.923Z,13.88
2022-07-29T10:29:02.199Z,13.68
2022-07-29T10:32:16.875Z,13.55
2022-07-29T10:35:25.942Z,13.25
2022-07-29T10:38:14.820Z,13.90
2022-07-29T10:41:32.065Z,14.82
2022-07-29T10:44:07.717Z,14.20
2022-07-29T10:46:40.069Z,13.50
2022-07-29T10:49:28.068Z,14.10
2022-07-29T10:52:08.353Z,15.00
2022-07-29T10:54:47.317Z,13.88
2022-07-29T10:57:17.351Z,14.52
2022-07-29T11:00:09.986Z,14.35
2022-07-29T11:02:56.491Z,13.20
2022-07-29T11:05:30.762Z,13.40
2022-07-29T11:08:26.325Z,13.52
2022-07-29T11:11:19.931Z,14.45
2022-07-29T11:13:52.274Z,13.13
2022-07-29T11:16:26.106Z,13.48
2022-07-29T11:19:11.318Z,15.23
2022-07-29T11:21:54.953Z,13.90
2022-07-29T11:24:32.167Z,13.88
2022-07-29T11:27:20.713Z,14.80
2022-07-29T11:30:02.265Z,14.05
2022-07-29T11:32:39.907Z,12.88
2022-07-29T11:35:36.986Z,12.70
2022-07-29T11:38:23.647Z,13.30
2022-07-29T11:41:18.148Z,12.88
2022-07-29T11:43:50.713Z,13.98
2022-07-29T11:46:39.844Z,13.65
2022-07-29T11:49:09.771Z,13.85
2022-07-29T11:51:48.289Z,13.63
2022-07-29T11:54:27.608Z,14.50
2022-07-29T11:56:55.036Z,14.23
2022-07-29T11:59:22.476Z,13.20
2022-07-29T12:02:18.452Z,13.88
2022-07-29T12:04:55.586Z,14.27
2022-07-29T12:07:35.167Z,13.90
2022-07-29T12:10:03.231Z,14.10
2022-07-29T12:12:30.283Z,14.48
2022-07-29T12:14:57.028Z,14.20
2022-07-29T12:17:34.689Z,15.45
2022-07-29T12:20:04.374Z,14.35
2022-07-29T12:22:38.284Z,14.45
2022-07-29T12:25:32.445Z,14.40
2022-07-29T12:30:37.158Z,13.93
2022-07-29T12:33:15.273Z,14.55
2022-07-29T12:35:47.810Z,13.95
2022-07-29T12:38:22.150Z,14.43
2022-07-29T12:40:50.159Z,13.88
2022-07-29T12:43:19.558Z,13.85
2022-07-29T12:45:54.661Z,13.63
2022-07-29T12:48:42.030Z,14.05
2022-07-29T12:51:11.121Z,13.35
2022-07-29T12:53:39.042Z,13.80
2022-07-29T12:56:26.643Z,13.70
2022-07-29T12:58:54.303Z,13.65
2022-07-29T13:01:21.901Z,13.93
2022-07-29T13:03:57.201Z,13.68
2022-07-29T13:06:42.668Z,13.95
2022-07-29T13:09:19.577Z,13.40
2022-07-29T13:11:54.317Z,13.63
2022-07-29T13:14:44.512Z,13.45
2022-07-29T13:17:24.182Z,13.30
2022-07-29T13:19:53.226Z,13.65
2022-07-29T13:22:25.529Z,13.70
2022-07-29T13:24:53.487Z,13.70
2022-07-29T13:27:23.432Z,13.85
2022-07-29T13:29:53.945Z,13.70
2022-07-29T13:32:28.232Z,13.80
2022-07-29T13:34:57.640Z,13.35
2022-07-29T13:37:25.556Z,13.23
2022-07-29T13:39:55.166Z,13.70
2022-07-29T13:42:21.976Z,14.10
2022-07-29T13:44:49.886Z,13.95
2022-07-29T13:47:17.235Z,13.65
2022-07-29T13:49:44.039Z,14.00
2022-07-29T13:52:10.988Z,14.00
2022-07-29T13:54:42.353Z,15.18
2022-07-29T13:57:11.975Z,14.95
2022-07-29T13:59:40.351Z,14.80
2022-07-29T14:02:07.627Z,15.20
2022-07-29T14:04:34.661Z,14.70
2022-07-29T14:07:03.738Z,15.13
2022-07-29T14:09:41.230Z,15.20
2022-07-29T14:12:08.891Z,15.63
2022-07-29T14:14:37.548Z,15.95
2022-07-29T14:17:07.515Z,15.63
2022-07-29T14:19:39.415Z,15.75
2022-07-29T14:22:08.702Z,16.02
2022-07-29T14:24:37.637Z,16.65
2022-07-29T14:27:06.236Z,15.63
2022-07-29T14:29:37.401Z,16.20
2022-07-29T14:32:08.698Z,16.73
2022-07-29T14:34:41.460Z,16.13
2022-07-29T14:37:09.491Z,16.75
2022-07-29T14:39:43.396Z,16.38
2022-07-29T14:42:12.994Z,26.50
2022-07-29T14:44:40.788Z,18.13
2022-07-29T14:47:08.461Z,16.83
2022-07-29T14:49:36.039Z,16.08
2022-07-29T14:52:03.225Z,15.85
2022-07-29T14:54:30.009Z,15.88
2022-07-29T14:56:58.615Z,15.82
2022-07-29T14:59:26.976Z,17.00
2022-07-29T15:01:54.051Z,17.10
2022-07-29T15:04:21.215Z,16.10
2022-07-29T15:06:48.527Z,16.13
2022-07-29T15:09:15.348Z,16.13
2022-07-29T15:11:42.219Z,15.82
2022-07-29T15:14:09.327Z,16.33
2022-07-29T15:16:43.782Z,16.45
2022-07-29T15:19:13.373Z,16.63
2022-07-29T15:21:47.895Z,15.57
2022-07-29T15:24:19.849Z,15.80
2022-07-29T15:26:47.401Z,16.17
2022-07-29T15:29:15.003Z,16.00
2022-07-29T15:31:42.189Z,16.10
2022-07-29T15:34:08.978Z,16.02
2022-07-29T15:36:52.102Z,15.60
2022-07-29T15:39:20.340Z,14.70
2022-07-29T15:41:47.117Z,15.13
2022-07-29T15:44:13.925Z,15.70
2022-07-29T15:47:02.050Z,15.65
2022-07-29T15:49:47.361Z,14.88
2022-07-29T15:52:25.821Z,15.23
2022-07-29T15:54:55.035Z,16.90
2022-07-29T15:57:21.946Z,16.35
2022-07-29T15:59:48.720Z,16.63
2022-07-29T16:02:15.715Z,15.73
2022-07-29T16:04:42.455Z,15.80
2022-07-29T16:07:09.175Z,15.55
2022-07-29T16:09:35.874Z,16.10
2022-07-29T16:12:02.683Z,15.68
2022-07-29T16:14:36.839Z,15.32
2022-07-29T16:17:04.581Z,15.20
2022-07-29T16:19:31.274Z,15.45
2022-07-29T16:21:59.902Z,14.63
2022-07-29T16:24:29.825Z,15.65
2022-07-29T16:26:57.602Z,15.80
2022-07-29T16:29:24.459Z,15.80
2022-07-29T16:31:51.382Z,15.50
2022-07-29T16:34:18.156Z,15.13
2022-07-29T16:36:47.837Z,15.18
2022-07-29T16:39:14.862Z,15.05
2022-07-29T16:41:42.378Z,14.77
2022-07-29T16:44:09.258Z,15.20
2022-07-29T16:46:37.840Z,15.45
2022-07-29T16:49:08.480Z,15.20
2022-07-29T16:51:35.425Z,15.02
2022-07-29T16:54:02.134Z,15.35
2022-07-29T16:56:28.878Z,15.65
2022-07-29T16:58:57.891Z,15.18
2022-07-29T17:01:24.674Z,15.52
2022-07-29T17:04:06.374Z,16.85
2022-07-29T17:06:38.027Z,15.43
2022-07-29T17:09:06.099Z,15.82
2022-07-29T17:11:53.799Z,15.43
2022-07-29T17:14:23.993Z,14.98
2022-07-29T17:17:00.186Z,15.05
2022-07-29T17:19:29.674Z,16.02
2022-07-29T17:22:03.545Z,15.57
2022-07-29T17:24:36.059Z,15.10
2022-07-29T17:27:02.849Z,17.23
2022-07-29T17:29:29.568Z,15.95
2022-07-29T17:31:57.752Z,20.13
2022-07-29T17:34:24.539Z,17.00
2022-07-29T17:36:51.256Z,16.75
2022-07-29T17:39:18.366Z,16.10
2022-07-29T17:41:46.923Z,16.10
2022-07-29T17:44:16.294Z,18.75
2022-07-29T17:46:43.182Z,15.60
2022-07-29T17:49:10.165Z,15.95
2022-07-29T17:51:36.945Z,18.42
2022-07-29T17:54:03.813Z,16.98
2022-07-29T17:56:30.620Z,17.58
2022-07-29T17:59:04.351Z,16.27
2022-07-29T18:04:53.481Z,14.40
2022-07-29T18:07:20.320Z,14.45
2022-07-29T18:09:47.104Z,14.60
2022-07-29T18:12:13.806Z,14.25
2022-07-29T18:14:40.564Z,15.48
2022-07-29T18:17:07.321Z,14.68
2022-07-29T18:19:34.040Z,14.40
2022-07-29T18:22:05.422Z,14.30
2022-07-29T18:24:32.896Z,15.18
2022-07-29T18:26:59.987Z,15.90
2022-07-29T18:29:29.112Z,15.90
2022-07-29T18:31:56.446Z,15.20
2022-07-29T18:34:23.284Z,15.13
2022-07-29T18:36:49.973Z,16.23
2022-07-29T18:39:20.834Z,14.45
2022-07-29T18:41:51.553Z,14.80
2022-07-29T18:44:23.404Z,15.13
2022-07-29T18:46:54.497Z,15.18
2022-07-29T18:49:22.948Z,14.45
2022-07-29T18:51:50.488Z,15.52
2022-07-29T18:54:17.660Z,14.50
2022-07-29T18:56:45.408Z,14.50
2022-07-29T18:59:16.903Z,14.00
2022-07-29T19:01:49.197Z,14.25
2022-07-29T19:04:17.971Z,14.43
2022-07-29T19:06:45.168Z,14.65
2022-07-29T19:09:12.063Z,15.07
2022-07-29T19:11:39.972Z,14.63
2022-07-29T19:14:07.355Z,14.57
2022-07-29T19:16:34.418Z,14.02
2022-07-29T19:19:01.307Z,14.10
2022-07-29T19:21:28.318Z,13.70
2022-07-29T19:24:01.825Z,14.30
2022-07-29T19:26:36.626Z,14.70
2022-07-29T19:29:04.511Z,15.05
2022-07-29T19:31:31.261Z,14.40
2022-07-29T19:33:58.026Z,14.35
2022-07-29T19:36:26.633Z,14.88
2022-07-29T19:38:53.349Z,14.15
2022-07-29T19:41:20.120Z,15.00
2022-07-29T19:43:50.353Z,14.45
2022-07-29T19:46:19.019Z,14.35
2022-07-29T19:48:45.987Z,14.30
2022-07-29T19:51:12.868Z,15.13
2022-07-29T19:53:39.875Z,18.25
2022-07-29T19:56:06.638Z,15.70
2022-07-29T19:58:36.124Z,15.65
2022-07-29T20:01:03.191Z,14.95
2022-07-29T20:03:39.931Z,17.38
2022-07-29T20:06:07.661Z,16.17
2022-07-29T20:08:34.777Z,15.32
2022-07-29T20:11:02.095Z,15.73
2022-07-29T20:13:31.306Z,15.45
2022-07-29T20:15:58.441Z,14.65
2022-07-29T20:18:25.405Z,15.88
2022-07-29T20:20:52.213Z,15.27
2022-07-29T20:23:19.550Z,15.77
2022-07-29T20:25:46.308Z,15.38
2022-07-29T20:28:13.187Z,16.15
2022-07-29T20:30:40.308Z,15.77
2022-07-29T20:33:07.577Z,15.90
2022-07-29T20:35:35.109Z,15.68
2022-07-29T20:38:02.159Z,15.90
2022-07-29T20:40:31.502Z,16.42
2022-07-29T20:42:58.354Z,16.27
2022-07-29T20:45:25.082Z,16.52
2022-07-29T20:47:52.549Z,16.15
2022-07-29T20:50:23.877Z,16.83
2022-07-29T20:52:51.823Z,16.33
2022-07-29T20:55:18.586Z,15.48
2022-07-29T20:57:45.400Z,16.60
2022-07-29T21:00:12.677Z,16.08
2022-07-29T21:02:39.549Z,15.43
2022-07-29T21:05:06.704Z,16.67
2022-07-29T21:07:33.495Z,16.02
2022-07-29T21:10:00.346Z,16.73
2022-07-29T21:12:28.703Z,16.00
2022-07-29T21:14:55.457Z,15.73
2022-07-29T21:17:22.580Z,16.08
2022-07-29T21:19:52.759Z,16.00
2022-07-29T21:22:21.981Z,15.80
2022-07-29T21:24:49.237Z,16.30
2022-07-29T21:27:34.769Z,16.67
2022-07-29T21:30:01.653Z,16.98
2022-07-29T21:32:30.149Z,15.93
2022-07-29T21:34:57.920Z,16.05
2022-07-29T21:37:24.778Z,16.45
2022-07-29T21:39:51.641Z,16.27
2022-07-29T21:42:18.720Z,16.88
2022-07-29T21:44:45.392Z,16.02
2022-07-29T21:47:12.281Z,15.80
2022-07-29T21:49:39.388Z,16.80
2022-07-29T21:52:07.903Z,16.25
2022-07-29T21:54:35.784Z,16.05
2022-07-29T21:57:02.922Z,16.27
2022-07-29T21:59:30.146Z,15.52
2022-07-29T22:02:00.873Z,16.15
2022-07-29T22:06:58.618Z,15.88
